This is the latest recevied weather packets stored in our database for station/object KJ5BMY-13. If no packets are shown the sender has not sent any weather packets the latest 10 day(s).
| Time | Temp. | Humidity | Pressure | Rain* | Wind** | Luminosity | Snow |
|---|---|---|---|---|---|---|---|
| 1777806096 | 12.78° C | 78% | 1022.4 hPa | 0 mm | - | - | - |
| 1777805792 | 12.78° C | 78% | 1022.4 hPa | 0 mm | - | - | - |
| 1777805490 | 12.78° C | 79% | 1022.4 hPa | 0 mm | - | - | - |
| 1777805188 | 11.67° C | 83% | 1022.3 hPa | 0 mm | - | - | - |
| 1777804885 | 11.11° C | 85% | 1022.3 hPa | 0 mm | - | - | - |
| 1777804582 | 11.11° C | 86% | 1022.4 hPa | 0 mm | - | - | - |
| 1777804280 | 11.11° C | 85% | 1022.2 hPa | 0 mm | - | - | - |
| 1777803977 | 11.11° C | 85% | 1022.3 hPa | 0 mm | - | - | - |
| 1777803674 | 11.11° C | 85% | 1022.3 hPa | 0 mm | - | - | - |
| 1777803369 | 11.11° C | 85% | 1022.1 hPa | 0 mm | - | - | - |
| 1777803068 | 11.11° C | 84% | 1022.1 hPa | 0 mm | - | - | - |
| 1777802765 | 10.56° C | 84% | 1022.3 hPa | 0 mm | - | - | - |
| 1777802463 | 11.11° C | 83% | 1022.1 hPa | 0 mm | - | - | - |
| 1777802160 | 11.11° C | 83% | 1022.1 hPa | 0 mm | - | - | - |
| 1777801858 | 11.11° C | 83% | 1022.2 hPa | 0 mm | - | - | - |
| 1777801555 | 11.11° C | 83% | 1022.3 hPa | 0 mm | - | - | - |
| 1777801251 | 11.11° C | 82% | 1022 hPa | 0 mm | - | - | - |
| 1777800948 | 11.11° C | 82% | 1022.3 hPa | 0 mm | - | - | - |
| 1777800645 | 11.11° C | 81% | 1022.2 hPa | 0 mm | - | - | - |
| 1777800340 | 11.67° C | 81% | 1022 hPa | 0 mm | - | - | - |
| 1777800037 | 11.67° C | 80% | 1022.1 hPa | 0 mm | - | - | - |
| 1777799732 | 11.67° C | 80% | 1022 hPa | 0 mm | - | - | - |
| 1777799430 | 11.67° C | 78% | 1022.1 hPa | 0 mm | - | - | - |
| 1777799126 | 11.67° C | 77% | 1022.1 hPa | 0 mm | - | - | - |
| 1777798822 | 12.22° C | 77% | 1022.1 hPa | 0 mm | - | - | - |
* Rain latest hour (hover to see other rain measurements)
** Current wind speed in m/s (hover to see current wind gust speed)